createdAt,value
2023-05-08T00:00:59.165Z,6.80
2023-05-08T00:03:28.022Z,7.20
2023-05-08T00:05:56.671Z,7.43
2023-05-08T00:08:25.366Z,7.80
2023-05-08T00:10:53.842Z,7.00
2023-05-08T00:13:22.365Z,7.90
2023-05-08T00:15:52.318Z,7.87
2023-05-08T00:18:20.786Z,7.23
2023-05-08T00:20:49.220Z,7.20
2023-05-08T00:23:17.672Z,7.10
2023-05-08T00:25:46.439Z,7.13
2023-05-08T00:28:14.878Z,7.23
2023-05-08T00:30:43.615Z,7.57
2023-05-08T00:33:13.457Z,7.87
2023-05-08T00:35:42.949Z,8.40
2023-05-08T00:38:11.462Z,8.00
2023-05-08T00:40:40.018Z,9.13
2023-05-08T00:43:08.576Z,9.67
2023-05-08T00:45:39.241Z,9.63
2023-05-08T00:48:08.542Z,9.10
2023-05-08T00:50:38.572Z,9.40
2023-05-08T00:53:07.128Z,9.03
2023-05-08T00:55:35.584Z,8.67
2023-05-08T00:58:04.003Z,10.33
2023-05-08T01:00:33.011Z,9.83
2023-05-08T01:03:02.178Z,9.67
2023-05-08T01:05:30.998Z,9.53
2023-05-08T01:08:00.775Z,9.30
2023-05-08T01:10:37.293Z,9.67
2023-05-08T01:13:10.619Z,10.10
2023-05-08T01:15:45.137Z,10.60
2023-05-08T01:18:24.450Z,10.37
2023-05-08T01:20:57.172Z,10.50
2023-05-08T01:24:03.330Z,11.20
2023-05-08T01:26:59.323Z,10.80
2023-05-08T01:29:56.397Z,10.30
2023-05-08T01:32:28.544Z,10.93
2023-05-08T01:35:01.981Z,11.63
2023-05-08T01:37:36.771Z,11.17
2023-05-08T01:40:12.607Z,10.50
2023-05-08T01:42:47.673Z,9.50
2023-05-08T01:45:22.276Z,10.33
2023-05-08T01:47:58.714Z,11.13
2023-05-08T01:50:32.345Z,11.50
2023-05-08T01:53:06.698Z,10.43
2023-05-08T01:55:37.821Z,10.00
2023-05-08T01:58:10.082Z,9.80
2023-05-08T02:00:41.052Z,10.27
2023-05-08T02:03:12.590Z,10.20
2023-05-08T02:05:41.633Z,10.03
2023-05-08T02:08:10.957Z,10.33
2023-05-08T02:10:39.562Z,10.23
2023-05-08T02:13:09.039Z,10.00
2023-05-08T02:15:38.326Z,10.50
2023-05-08T02:18:08.818Z,10.90
2023-05-08T02:20:39.521Z,10.93
2023-05-08T02:23:08.172Z,11.23
2023-05-08T02:25:37.128Z,11.40
2023-05-08T02:28:07.587Z,11.07
2023-05-08T02:30:36.162Z,11.10
2023-05-08T02:33:05.301Z,11.70
2023-05-08T02:35:34.069Z,10.83
2023-05-08T02:38:04.709Z,11.80
2023-05-08T02:40:33.762Z,10.97
2023-05-08T02:43:02.221Z,10.83
2023-05-08T02:45:38.328Z,11.40
2023-05-08T02:48:11.978Z,11.17
2023-05-08T02:50:47.017Z,11.13
2023-05-08T02:53:21.583Z,10.90
2023-05-08T02:55:51.821Z,11.10
2023-05-08T02:58:23.823Z,11.30
2023-05-08T03:01:00.116Z,11.40
2023-05-08T03:03:34.231Z,12.00
2023-05-08T03:06:04.268Z,12.30
2023-05-08T03:08:35.927Z,12.17
2023-05-08T03:11:07.577Z,11.87
2023-05-08T03:13:36.884Z,12.13
2023-05-08T03:16:06.574Z,11.50
2023-05-08T03:18:37.447Z,11.67
2023-05-08T03:21:07.432Z,11.83
2023-05-08T03:23:38.685Z,11.47
2023-05-08T03:26:07.465Z,11.73
2023-05-08T03:28:37.141Z,16.13
2023-05-08T03:31:06.966Z,19.27
2023-05-08T03:33:35.488Z,13.87
2023-05-08T03:36:04.432Z,13.27
2023-05-08T03:38:32.985Z,12.13
2023-05-08T03:41:03.233Z,12.53
2023-05-08T03:43:32.945Z,12.50
2023-05-08T03:46:01.381Z,11.97
2023-05-08T03:48:30.356Z,11.37
2023-05-08T03:50:59.998Z,11.40
2023-05-08T03:53:28.651Z,11.47
2023-05-08T03:55:58.261Z,11.93
2023-05-08T03:58:33.021Z,11.90
2023-05-08T04:01:07.449Z,12.07
2023-05-08T04:03:46.325Z,12.33
2023-05-08T04:06:18.389Z,12.00
2023-05-08T04:08:50.392Z,11.97
2023-05-08T04:11:23.700Z,12.33
2023-05-08T04:13:58.223Z,12.23
2023-05-08T04:16:28.866Z,11.80
2023-05-08T04:19:02.631Z,10.93
2023-05-08T04:21:32.600Z,10.80
2023-05-08T04:24:02.051Z,10.33
2023-05-08T04:26:31.117Z,9.97
2023-05-08T04:29:01.302Z,11.67
2023-05-08T04:31:30.172Z,10.53
2023-05-08T04:33:58.931Z,11.87
2023-05-08T04:36:29.538Z,10.37
2023-05-08T04:38:59.157Z,11.13
2023-05-08T04:41:27.911Z,10.93
2023-05-08T04:43:56.623Z,11.03
2023-05-08T04:46:26.638Z,11.13
2023-05-08T04:48:55.433Z,10.20
2023-05-08T04:51:23.929Z,9.67
2023-05-08T04:53:52.484Z,10.60
2023-05-08T04:56:20.906Z,10.30
2023-05-08T04:58:49.405Z,10.00
2023-05-08T05:01:18.063Z,12.23
2023-05-08T05:03:47.958Z,10.60
2023-05-08T05:06:16.389Z,10.93
2023-05-08T05:08:44.912Z,11.23
2023-05-08T05:11:13.442Z,10.60
2023-05-08T05:13:41.832Z,11.00
2023-05-08T05:16:10.514Z,10.60
2023-05-08T05:18:38.997Z,11.77
2023-05-08T05:21:08.888Z,10.77
2023-05-08T05:23:37.345Z,11.00
2023-05-08T05:26:06.192Z,10.80
2023-05-08T05:28:34.686Z,12.00
2023-05-08T05:31:03.247Z,11.07
2023-05-08T05:33:31.719Z,10.83
2023-05-08T05:36:00.236Z,11.10
2023-05-08T05:38:30.018Z,11.40
2023-05-08T05:40:58.474Z,11.37
2023-05-08T05:43:26.956Z,10.53
2023-05-08T05:45:56.129Z,11.17
2023-05-08T05:48:24.557Z,11.20
2023-05-08T05:50:52.982Z,10.67
2023-05-08T05:53:21.440Z,11.30
2023-05-08T05:55:51.267Z,11.70
2023-05-08T05:58:19.787Z,11.83
2023-05-08T06:00:48.623Z,9.87
2023-05-08T06:03:17.120Z,11.20
2023-05-08T06:05:48.013Z,11.07
2023-05-08T06:08:17.936Z,11.50
2023-05-08T06:10:46.352Z,10.90
2023-05-08T06:13:16.289Z,11.60
2023-05-08T06:15:44.836Z,10.70
2023-05-08T06:18:13.333Z,10.33
2023-05-08T06:20:41.778Z,11.27
2023-05-08T06:23:11.368Z,11.40
2023-05-08T06:25:39.804Z,11.17
2023-05-08T06:28:08.342Z,11.13
2023-05-08T06:30:38.231Z,10.40
2023-05-08T06:33:06.741Z,11.30
2023-05-08T06:35:35.171Z,11.97
2023-05-08T06:38:03.616Z,12.13
2023-05-08T06:40:32.105Z,12.37
2023-05-08T06:43:00.611Z,13.07
2023-05-08T06:45:29.156Z,13.13
2023-05-08T06:47:58.971Z,14.10
2023-05-08T06:50:27.405Z,13.10
2023-05-08T06:52:55.872Z,14.53
2023-05-08T06:55:24.438Z,13.53
2023-05-08T06:57:53.002Z,13.87
2023-05-08T07:00:21.773Z,13.93
2023-05-08T07:02:50.305Z,13.60
2023-05-08T07:05:20.929Z,15.83
2023-05-08T07:07:49.363Z,14.27
2023-05-08T07:10:19.956Z,14.43
2023-05-08T07:12:48.397Z,14.07
2023-05-08T07:15:25.214Z,13.80
2023-05-08T07:17:54.915Z,13.60
2023-05-08T07:20:25.360Z,22.00
2023-05-08T07:22:53.829Z,14.30
2023-05-08T07:25:22.257Z,18.87
2023-05-08T07:27:50.705Z,14.07
2023-05-08T07:30:19.328Z,14.27
2023-05-08T07:32:48.162Z,15.10
2023-05-08T07:35:17.051Z,23.20
2023-05-08T07:37:46.936Z,22.53
2023-05-08T07:40:15.412Z,15.70
2023-05-08T07:42:44.623Z,16.03
2023-05-08T07:45:14.492Z,37.53
2023-05-08T07:47:50.742Z,15.37
2023-05-08T07:50:19.454Z,14.57
2023-05-08T07:52:50.300Z,15.00
2023-05-08T07:55:19.916Z,15.53
2023-05-08T07:57:48.477Z,15.33
2023-05-08T08:00:17.578Z,15.73
2023-05-08T08:02:46.731Z,16.37
2023-05-08T08:05:15.705Z,15.60
2023-05-08T08:07:44.452Z,15.20
2023-05-08T08:10:14.283Z,16.43
2023-05-08T08:12:42.723Z,17.10
2023-05-08T08:15:11.934Z,17.40
2023-05-08T08:17:40.523Z,18.93
2023-05-08T08:20:10.349Z,18.67
2023-05-08T08:22:39.443Z,18.47
2023-05-08T08:25:08.740Z,19.27
2023-05-08T08:27:39.145Z,20.83
2023-05-08T08:30:17.066Z,20.50
2023-05-08T08:32:47.366Z,23.53
2023-05-08T08:35:16.904Z,18.20
2023-05-08T08:37:45.987Z,17.83
2023-05-08T08:40:14.792Z,17.07
2023-05-08T08:42:44.589Z,18.87
2023-05-08T08:45:13.299Z,18.07
2023-05-08T08:47:46.319Z,18.77
2023-05-08T08:50:15.911Z,18.77
2023-05-08T08:52:49.060Z,17.87
2023-05-08T08:55:18.477Z,18.10
2023-05-08T08:57:56.434Z,18.23
2023-05-08T09:00:26.006Z,17.80
2023-05-08T09:02:54.678Z,19.10
2023-05-08T09:05:23.797Z,19.37
2023-05-08T09:07:52.884Z,18.00
2023-05-08T09:10:21.780Z,17.60
2023-05-08T09:12:51.798Z,17.03
2023-05-08T09:15:20.290Z,16.37
2023-05-08T09:17:49.095Z,17.50
2023-05-08T09:20:17.544Z,17.80
2023-05-08T09:22:46.103Z,17.17
2023-05-08T09:25:14.764Z,16.90
2023-05-08T09:27:43.437Z,16.47
2023-05-08T09:30:14.430Z,16.03
2023-05-08T09:32:44.337Z,16.90
2023-05-08T09:35:13.740Z,16.47
2023-05-08T09:37:43.682Z,16.20
2023-05-08T09:40:16.885Z,16.93
2023-05-08T09:42:45.461Z,14.70
2023-05-08T09:45:27.821Z,17.03
2023-05-08T09:47:56.594Z,17.17
2023-05-08T09:50:26.733Z,18.03
2023-05-08T09:52:55.312Z,16.70
2023-05-08T09:55:24.022Z,16.93
2023-05-08T09:57:57.830Z,19.70
2023-05-08T10:00:29.277Z,18.97
2023-05-08T10:02:59.140Z,16.77
2023-05-08T10:05:30.132Z,18.17
2023-05-08T10:07:59.198Z,19.10
2023-05-08T10:10:28.552Z,19.10
2023-05-08T10:12:58.464Z,22.90
2023-05-08T10:15:31.177Z,22.57
2023-05-08T10:18:06.098Z,19.07
2023-05-08T10:20:35.770Z,17.27
2023-05-08T10:23:04.675Z,18.33
2023-05-08T10:25:35.642Z,17.30
2023-05-08T10:28:11.826Z,17.40
2023-05-08T10:30:45.327Z,19.43
2023-05-08T10:33:15.720Z,18.20
2023-05-08T10:35:44.458Z,18.47
2023-05-08T10:38:13.017Z,19.20
2023-05-08T10:40:41.498Z,19.90
2023-05-08T10:43:10.676Z,19.30
2023-05-08T10:45:41.209Z,17.27
2023-05-08T10:48:17.628Z,17.47
2023-05-08T10:50:56.523Z,16.73
2023-05-08T10:53:33.066Z,19.00
2023-05-08T10:56:01.680Z,18.43
2023-05-08T10:58:31.682Z,17.57
2023-05-08T11:01:15.315Z,19.57
2023-05-08T11:03:46.780Z,19.40
2023-05-08T11:06:15.977Z,17.90
2023-05-08T11:08:50.211Z,24.97
2023-05-08T11:11:34.185Z,19.90
2023-05-08T11:14:13.445Z,21.37
2023-05-08T11:17:08.444Z,19.87
2023-05-08T11:19:37.909Z,20.37
2023-05-08T11:22:25.826Z,19.20
2023-05-08T11:24:58.394Z,19.07
2023-05-08T11:27:34.500Z,29.10
2023-05-08T11:30:24.640Z,32.80
2023-05-08T11:33:16.707Z,20.13
2023-05-08T11:35:53.963Z,20.80
2023-05-08T11:38:26.108Z,20.13
2023-05-08T11:40:59.912Z,18.83
2023-05-08T11:43:47.718Z,19.90
2023-05-08T11:46:19.491Z,20.03
2023-05-08T11:48:49.475Z,20.63
2023-05-08T11:51:19.337Z,22.17
2023-05-08T11:53:48.785Z,23.27
2023-05-08T11:56:17.295Z,21.20
2023-05-08T11:58:45.755Z,21.80
2023-05-08T12:01:20.617Z,21.07
2023-05-08T12:03:50.571Z,21.77
2023-05-08T12:06:20.306Z,21.40
2023-05-08T12:08:48.870Z,21.43
2023-05-08T12:11:23.966Z,21.17
2023-05-08T12:13:52.762Z,21.53
2023-05-08T12:16:22.568Z,22.07
2023-05-08T12:18:52.946Z,21.23
2023-05-08T12:21:22.707Z,21.83
2023-05-08T12:23:51.189Z,22.67
2023-05-08T12:26:19.629Z,21.73
2023-05-08T12:28:48.628Z,21.30
2023-05-08T12:31:17.290Z,19.57
2023-05-08T12:33:46.209Z,21.07
2023-05-08T12:36:16.762Z,21.03
2023-05-08T12:38:45.337Z,20.97
2023-05-08T12:41:14.112Z,20.37
2023-05-08T12:43:42.790Z,19.70
2023-05-08T12:46:14.711Z,20.20
2023-05-08T12:48:43.289Z,21.10
2023-05-08T12:51:12.876Z,19.60
2023-05-08T12:53:42.873Z,21.47
2023-05-08T12:56:11.296Z,20.87
2023-05-08T12:58:39.747Z,20.07
2023-05-08T13:01:12.866Z,19.70
2023-05-08T13:03:42.171Z,20.00
2023-05-08T13:06:21.102Z,18.53
2023-05-08T13:08:54.899Z,20.50
2023-05-08T13:11:31.463Z,19.83
2023-05-08T13:14:00.093Z,22.47
2023-05-08T13:16:45.062Z,21.47
2023-05-08T13:19:14.670Z,19.40
2023-05-08T13:21:44.574Z,18.37
2023-05-08T13:24:12.997Z,18.93
2023-05-08T13:26:41.451Z,20.40
2023-05-08T13:29:10.005Z,19.73
2023-05-08T13:31:38.479Z,18.30
2023-05-08T13:34:08.383Z,19.10
2023-05-08T13:36:36.901Z,20.40
2023-05-08T13:39:05.393Z,18.83
2023-05-08T13:41:33.935Z,18.90
2023-05-08T13:44:02.525Z,18.57
2023-05-08T13:46:31.002Z,18.67
2023-05-08T13:48:59.501Z,18.43
2023-05-08T13:51:29.297Z,22.57
2023-05-08T13:53:57.768Z,25.07
2023-05-08T13:56:26.251Z,21.13
2023-05-08T13:58:54.708Z,20.47
2023-05-08T14:01:26.878Z,19.20
2023-05-08T14:03:56.165Z,18.53
2023-05-08T14:06:24.770Z,18.83
2023-05-08T14:08:56.295Z,18.73
2023-05-08T14:11:25.749Z,16.53
2023-05-08T14:13:54.206Z,17.53
2023-05-08T14:16:22.697Z,17.73
2023-05-08T14:18:51.182Z,17.93
2023-05-08T14:21:19.655Z,17.60
2023-05-08T14:23:48.074Z,17.67
2023-05-08T14:26:17.978Z,19.10
2023-05-08T14:28:46.481Z,17.30
2023-05-08T14:31:14.974Z,17.83
2023-05-08T14:33:43.520Z,18.20
2023-05-08T14:36:12.113Z,18.00
2023-05-08T14:38:40.562Z,18.30
2023-05-08T14:41:09.225Z,19.10
2023-05-08T14:43:39.238Z,19.27
2023-05-08T14:46:08.096Z,16.70
2023-05-08T14:48:36.715Z,17.67
2023-05-08T14:51:05.472Z,16.77
2023-05-08T14:53:34.015Z,17.90
2023-05-08T14:56:03.809Z,15.50
2023-05-08T14:58:32.631Z,15.90
2023-05-08T15:01:02.649Z,16.47
2023-05-08T15:03:31.449Z,15.97
2023-05-08T15:06:00.183Z,16.50
2023-05-08T15:08:28.653Z,17.07
2023-05-08T15:10:57.069Z,15.23
2023-05-08T15:13:25.625Z,15.47
2023-05-08T15:15:54.302Z,15.17
2023-05-08T15:18:25.501Z,15.27
2023-05-08T15:20:53.948Z,14.83
2023-05-08T15:23:22.401Z,15.20
2023-05-08T15:25:50.826Z,14.30
2023-05-08T15:28:19.262Z,13.53
2023-05-08T15:30:47.881Z,13.80
2023-05-08T15:33:16.401Z,15.13
2023-05-08T15:35:46.251Z,14.47
2023-05-08T15:38:14.757Z,14.60
2023-05-08T15:40:43.193Z,14.70
2023-05-08T15:43:11.744Z,15.37
2023-05-08T15:45:40.392Z,16.50
2023-05-08T15:48:08.953Z,16.13
2023-05-08T15:50:37.577Z,16.70
2023-05-08T15:53:07.379Z,16.60
2023-05-08T15:55:35.853Z,15.57
2023-05-08T15:58:04.288Z,16.30
2023-05-08T16:00:43.818Z,16.73
2023-05-08T16:03:12.962Z,16.80
2023-05-08T16:05:41.547Z,21.07
2023-05-08T16:08:12.845Z,19.50
2023-05-08T16:10:42.590Z,20.80
2023-05-08T16:13:11.132Z,21.57
2023-05-08T16:15:39.750Z,17.40
2023-05-08T16:18:08.741Z,15.07
2023-05-08T16:20:37.522Z,15.13
2023-05-08T16:23:05.983Z,14.67
2023-05-08T16:25:35.842Z,14.80
2023-05-08T16:28:04.372Z,15.13
2023-05-08T16:30:32.814Z,15.27
2023-05-08T16:33:01.339Z,14.53
2023-05-08T16:35:30.214Z,14.33
2023-05-08T16:37:58.672Z,13.77
2023-05-08T16:40:27.321Z,16.70
2023-05-08T16:42:57.126Z,17.33
2023-05-08T16:45:25.806Z,17.67
2023-05-08T16:47:54.340Z,18.10
2023-05-08T16:50:23.217Z,17.53
2023-05-08T16:52:52.137Z,17.87
2023-05-08T16:55:20.855Z,18.80
2023-05-08T16:57:49.495Z,17.13
2023-05-08T17:00:21.064Z,17.33
2023-05-08T17:02:49.578Z,15.90
2023-05-08T17:05:18.208Z,14.80
2023-05-08T17:07:46.828Z,18.37
2023-05-08T17:10:15.749Z,19.97
2023-05-08T17:12:44.206Z,18.73
2023-05-08T17:15:13.214Z,19.23
2023-05-08T17:17:43.452Z,18.17
2023-05-08T17:20:13.460Z,18.50
2023-05-08T17:22:42.117Z,19.13
2023-05-08T17:25:10.584Z,18.50
2023-05-08T17:27:39.555Z,19.77
2023-05-08T17:30:11.913Z,18.53
2023-05-08T17:32:40.768Z,19.07
2023-05-08T17:35:11.005Z,92.33
2023-05-08T17:37:39.485Z,38.87
2023-05-08T17:40:10.132Z,25.13
2023-05-08T17:42:38.576Z,19.37
2023-05-08T17:45:08.391Z,18.23
2023-05-08T17:47:37.543Z,20.40
2023-05-08T17:50:09.237Z,22.13
2023-05-08T17:52:39.060Z,23.50
2023-05-08T17:55:08.578Z,20.63
2023-05-08T17:57:37.576Z,20.43
2023-05-08T18:00:07.370Z,22.40
2023-05-08T18:02:36.289Z,21.03
2023-05-08T18:05:05.155Z,20.37
2023-05-08T18:07:33.642Z,19.27
2023-05-08T18:10:03.459Z,20.83
2023-05-08T18:12:33.452Z,19.53
2023-05-08T18:15:03.564Z,19.80
2023-05-08T18:17:32.068Z,17.87
2023-05-08T18:20:03.994Z,17.43
2023-05-08T18:22:32.440Z,17.13
2023-05-08T18:25:01.516Z,17.83
2023-05-08T18:27:33.410Z,17.10
2023-05-08T18:30:02.008Z,17.50
2023-05-08T18:32:30.567Z,17.43
2023-05-08T18:34:59.254Z,17.50
2023-05-08T18:37:28.288Z,16.27
2023-05-08T18:39:56.868Z,15.27
2023-05-08T18:42:25.377Z,16.50
2023-05-08T18:44:55.624Z,14.37
2023-05-08T18:47:24.136Z,16.13
2023-05-08T18:49:53.004Z,16.50
2023-05-08T18:52:21.537Z,15.33
2023-05-08T18:54:50.073Z,14.77
2023-05-08T18:57:18.994Z,15.03
2023-05-08T18:59:47.484Z,25.00
2023-05-08T19:02:17.342Z,21.40
2023-05-08T19:04:46.348Z,16.93
2023-05-08T19:07:14.946Z,14.30
2023-05-08T19:09:43.424Z,14.03
2023-05-08T19:12:11.988Z,14.50
2023-05-08T19:14:40.551Z,13.30
2023-05-08T19:17:10.235Z,12.53
2023-05-08T19:19:40.076Z,12.80
2023-05-08T19:22:09.060Z,13.20
2023-05-08T19:24:37.552Z,12.87
2023-05-08T19:27:06.783Z,12.03
2023-05-08T19:29:35.622Z,14.57
2023-05-08T19:32:04.398Z,17.37
2023-05-08T19:34:35.012Z,19.73
2023-05-08T19:37:05.090Z,17.33
2023-05-08T19:39:33.607Z,16.03
2023-05-08T19:42:02.685Z,13.00
2023-05-08T19:44:32.759Z,23.23
2023-05-08T19:47:03.140Z,17.80
2023-05-08T19:49:32.449Z,20.87
2023-05-08T19:52:01.024Z,12.70
2023-05-08T19:54:31.716Z,13.33
2023-05-08T19:57:00.233Z,13.30
2023-05-08T19:59:28.776Z,12.80
2023-05-08T20:01:58.818Z,12.40
2023-05-08T20:04:27.371Z,10.90
2023-05-08T20:06:55.875Z,11.90
2023-05-08T20:09:24.316Z,11.40
2023-05-08T20:11:55.328Z,10.87
2023-05-08T20:14:24.068Z,11.40
2023-05-08T20:16:52.578Z,11.17
2023-05-08T20:19:21.643Z,11.20
2023-05-08T20:21:50.262Z,11.33
2023-05-08T20:24:18.806Z,24.80
2023-05-08T20:26:47.317Z,25.60
2023-05-08T20:29:17.128Z,25.17
2023-05-08T20:31:45.662Z,16.73
2023-05-08T20:34:14.209Z,13.37
2023-05-08T20:36:42.670Z,13.50
2023-05-08T20:39:11.111Z,12.20
2023-05-08T20:41:39.727Z,11.67
2023-05-08T20:44:08.298Z,12.03
2023-05-08T20:46:38.320Z,11.60
2023-05-08T20:49:06.872Z,10.87
2023-05-08T20:51:36.334Z,10.97
2023-05-08T20:54:04.920Z,10.67
2023-05-08T20:56:35.768Z,10.53
2023-05-08T20:59:04.273Z,10.60
2023-05-08T21:01:32.768Z,10.60
2023-05-08T21:04:02.671Z,10.40
2023-05-08T21:06:31.128Z,9.73
2023-05-08T21:08:59.591Z,10.33
2023-05-08T21:11:28.045Z,10.57
2023-05-08T21:13:56.575Z,10.57
2023-05-08T21:16:26.750Z,11.67
2023-05-08T21:18:58.064Z,10.60
2023-05-08T21:21:28.288Z,10.93
2023-05-08T21:23:56.699Z,10.87
2023-05-08T21:26:25.217Z,10.87
2023-05-08T21:28:53.776Z,10.70
2023-05-08T21:31:22.526Z,10.30
2023-05-08T21:33:51.970Z,53.03
2023-05-08T21:36:20.480Z,16.90
2023-05-08T21:38:50.316Z,12.37
2023-05-08T21:41:18.747Z,11.77
2023-05-08T21:43:47.172Z,11.93
2023-05-08T21:46:15.751Z,11.37
2023-05-08T21:48:44.210Z,11.80
2023-05-08T21:51:12.995Z,10.77
2023-05-08T21:53:41.448Z,11.13
2023-05-08T21:56:11.402Z,32.13
2023-05-08T21:58:39.981Z,15.10
2023-05-08T22:01:08.384Z,13.30
2023-05-08T22:03:36.965Z,12.57
2023-05-08T22:06:05.670Z,11.13
2023-05-08T22:08:34.184Z,10.33
2023-05-08T22:11:02.698Z,9.83
2023-05-08T22:13:32.632Z,9.53
2023-05-08T22:16:01.177Z,8.87
2023-05-08T22:18:29.657Z,10.93
2023-05-08T22:20:58.102Z,10.00
2023-05-08T22:23:26.729Z,10.37
2023-05-08T22:25:55.254Z,9.93
2023-05-08T22:28:23.688Z,10.70
2023-05-08T22:30:53.550Z,9.90
2023-05-08T22:33:22.067Z,10.00
2023-05-08T22:35:50.586Z,10.23
2023-05-08T22:38:19.137Z,10.60
2023-05-08T22:40:48.263Z,10.63
2023-05-08T22:43:16.708Z,10.23
2023-05-08T22:45:45.193Z,11.70
2023-05-08T22:48:15.055Z,9.93
2023-05-08T22:50:43.530Z,10.70
2023-05-08T22:53:12.301Z,9.70
2023-05-08T22:55:41.431Z,10.23
2023-05-08T22:58:09.857Z,10.13
2023-05-08T23:00:38.344Z,10.27
2023-05-08T23:03:06.999Z,9.90
2023-05-08T23:05:36.957Z,10.13
2023-05-08T23:08:05.804Z,10.10
2023-05-08T23:10:34.294Z,9.37
2023-05-08T23:13:02.746Z,9.63
2023-05-08T23:15:31.260Z,11.07
2023-05-08T23:17:59.709Z,9.53
2023-05-08T23:20:28.283Z,11.33
2023-05-08T23:22:58.413Z,11.10
2023-05-08T23:25:27.158Z,10.83
2023-05-08T23:27:55.622Z,10.23
2023-05-08T23:30:24.025Z,8.80
2023-05-08T23:32:52.619Z,8.47
2023-05-08T23:35:21.221Z,8.63
2023-05-08T23:37:49.731Z,8.57
2023-05-08T23:40:19.549Z,9.57
2023-05-08T23:42:48.013Z,9.20
2023-05-08T23:45:16.834Z,10.23
2023-05-08T23:47:46.433Z,9.13
2023-05-08T23:50:14.917Z,9.23
2023-05-08T23:52:43.321Z,9.40
2023-05-08T23:55:12.368Z,9.27
2023-05-08T23:57:42.403Z,9.90
